createdAt,value
2019-03-09T00:00:39.396Z,13.43
2019-03-09T00:05:36.347Z,6.97
2019-03-09T00:10:35.404Z,8.90
2019-03-09T00:15:32.353Z,7.10
2019-03-09T00:20:29.432Z,8.83
2019-03-09T00:25:28.238Z,8.00
2019-03-09T00:30:30.104Z,6.10
2019-03-09T00:35:27.130Z,7.53
2019-03-09T00:40:24.154Z,14.17
2019-03-09T00:45:22.801Z,7.87
2019-03-09T00:50:19.903Z,4.80
2019-03-09T00:55:17.140Z,5.40
2019-03-09T01:00:17.617Z,6.83
2019-03-09T01:05:14.779Z,7.43
2019-03-09T01:10:14.331Z,8.23
2019-03-09T01:15:12.189Z,5.73
2019-03-09T01:20:14.682Z,5.00
2019-03-09T01:25:11.898Z,4.80
2019-03-09T01:30:17.225Z,5.70
2019-03-09T01:35:14.274Z,6.07
2019-03-09T01:40:14.153Z,5.30
2019-03-09T01:45:14.242Z,7.20
2019-03-09T01:50:11.225Z,5.90
2019-03-09T01:55:10.658Z,7.50
2019-03-09T02:00:16.445Z,6.30
2019-03-09T02:05:14.548Z,5.93
2019-03-09T02:10:14.526Z,6.80
2019-03-09T02:15:14.238Z,5.77
2019-03-09T02:20:15.756Z,7.00
2019-03-09T02:25:13.202Z,9.23
2019-03-09T02:30:16.024Z,9.10
2019-03-09T02:35:14.242Z,12.63
2019-03-09T02:40:13.871Z,7.27
2019-03-09T02:45:20.028Z,8.17
2019-03-09T02:50:17.070Z,11.47
2019-03-09T02:55:14.329Z,8.67
2019-03-09T03:00:17.333Z,9.67
2019-03-09T03:05:14.930Z,12.57
2019-03-09T03:10:11.965Z,9.10
2019-03-09T03:15:12.747Z,9.90
2019-03-09T03:20:09.868Z,8.90
2019-03-09T03:25:07.014Z,9.33
2019-03-09T03:30:06.569Z,17.83
2019-03-09T03:35:07.179Z,11.00
2019-03-09T03:40:11.378Z,9.30
2019-03-09T03:45:11.090Z,13.90
2019-03-09T03:50:08.167Z,9.67
2019-03-09T03:55:08.348Z,11.03
2019-03-09T04:00:11.768Z,10.93
2019-03-09T04:05:09.622Z,15.40
2019-03-09T04:10:10.504Z,13.33
2019-03-09T04:15:07.853Z,13.87
2019-03-09T04:20:07.229Z,13.50
2019-03-09T04:25:06.279Z,11.10
2019-03-09T04:30:06.568Z,15.67
2019-03-09T04:35:04.792Z,14.30
2019-03-09T04:40:02.675Z,9.90
2019-03-09T04:44:59.827Z,11.50
2019-03-09T04:49:56.853Z,18.33
2019-03-09T04:54:53.847Z,23.20
2019-03-09T04:59:50.836Z,23.73
2019-03-09T05:04:47.782Z,20.90
2019-03-09T05:10:02.312Z,19.03
2019-03-09T05:14:59.344Z,14.57
2019-03-09T05:19:56.403Z,18.67
2019-03-09T05:24:53.357Z,38.57
2019-03-09T05:29:50.492Z,16.53
2019-03-09T05:34:47.507Z,23.60
2019-03-09T05:39:45.707Z,14.57
2019-03-09T05:44:42.748Z,21.90
2019-03-09T05:49:39.828Z,14.53
2019-03-09T05:54:36.784Z,19.67
2019-03-09T05:59:33.805Z,18.03
2019-03-09T06:04:30.810Z,19.53
2019-03-09T06:09:27.901Z,16.17
2019-03-09T06:14:24.930Z,14.67
2019-03-09T06:19:22.050Z,14.50
2019-03-09T06:24:18.984Z,13.93
2019-03-09T06:29:16.006Z,16.67
2019-03-09T06:34:13.165Z,13.60
2019-03-09T06:39:10.212Z,12.77
2019-03-09T06:44:07.241Z,24.27
2019-03-09T06:49:04.229Z,15.07
2019-03-09T06:54:01.440Z,19.23
2019-03-09T06:58:58.579Z,36.27
2019-03-09T07:03:55.833Z,40.10
2019-03-09T07:08:52.920Z,33.77
2019-03-09T07:13:53.138Z,36.00
2019-03-09T07:18:48.844Z,40.50
2019-03-09T07:23:45.901Z,33.70
2019-03-09T07:28:42.997Z,26.00
2019-03-09T07:33:41.405Z,36.13
2019-03-09T07:38:38.443Z,31.47
2019-03-09T07:43:35.423Z,18.27
2019-03-09T07:48:32.418Z,9.40
2019-03-09T07:53:29.466Z,8.43
2019-03-09T07:58:26.552Z,9.77
2019-03-09T08:03:23.528Z,7.20
2019-03-09T08:08:20.685Z,5.83
2019-03-09T08:13:17.639Z,5.10
2019-03-09T08:18:14.803Z,8.70
2019-03-09T08:23:11.847Z,9.63
2019-03-09T08:28:08.928Z,8.23
2019-03-09T08:33:05.935Z,4.87
2019-03-09T08:38:02.958Z,4.37
2019-03-09T08:42:59.971Z,5.27
2019-03-09T08:47:59.036Z,7.30
2019-03-09T08:52:56.058Z,6.07
2019-03-09T08:57:53.131Z,6.40
2019-03-09T09:02:50.135Z,5.23
2019-03-09T09:07:47.245Z,3.80
2019-03-09T09:12:45.536Z,4.20
2019-03-09T09:17:42.916Z,5.60
2019-03-09T09:22:39.939Z,5.83
2019-03-09T09:27:37.070Z,11.13
2019-03-09T09:32:34.974Z,6.83
2019-03-09T09:37:31.997Z,8.10
2019-03-09T09:42:28.984Z,6.67
2019-03-09T09:47:26.031Z,2.80
2019-03-09T09:52:22.983Z,3.60
2019-03-09T09:57:20.094Z,4.73
2019-03-09T10:02:17.615Z,6.57
2019-03-09T10:07:14.812Z,7.40
2019-03-09T10:12:11.739Z,4.77
2019-03-09T10:17:08.770Z,3.53
2019-03-09T10:22:05.893Z,3.17
2019-03-09T10:27:02.917Z,5.17
2019-03-09T10:31:59.861Z,4.60
2019-03-09T10:36:56.973Z,2.80
2019-03-09T10:41:54.974Z,6.10
2019-03-09T10:46:52.014Z,5.53
2019-03-09T10:51:49.061Z,7.80
2019-03-09T10:56:46.162Z,6.50
2019-03-09T11:01:43.172Z,6.40
2019-03-09T11:06:40.641Z,8.30
2019-03-09T11:11:37.604Z,2.67
2019-03-09T11:16:34.636Z,1.43
2019-03-09T11:21:31.735Z,10.13
2019-03-09T11:26:30.769Z,2.23
2019-03-09T11:31:27.699Z,3.27
2019-03-09T11:36:24.717Z,9.27
2019-03-09T11:41:21.772Z,3.67
2019-03-09T11:46:18.807Z,4.53
2019-03-09T11:51:15.833Z,3.23
2019-03-09T11:56:12.955Z,2.43
2019-03-09T12:01:09.958Z,16.13
2019-03-09T12:06:07.552Z,3.33
2019-03-09T12:11:04.647Z,2.40
2019-03-09T12:16:01.713Z,3.70
2019-03-09T12:20:58.719Z,2.57
2019-03-09T12:25:55.950Z,5.20
2019-03-09T12:30:52.946Z,2.63
2019-03-09T12:35:50.056Z,4.60
2019-03-09T12:40:47.099Z,1.60
2019-03-09T12:45:44.198Z,13.53
2019-03-09T12:50:41.262Z,5.63
2019-03-09T12:55:38.337Z,3.70
2019-03-09T13:00:35.402Z,3.50
2019-03-09T13:05:32.463Z,3.80
2019-03-09T13:10:29.424Z,11.93
2019-03-09T13:15:26.413Z,2.93
2019-03-09T13:20:23.369Z,12.83
2019-03-09T13:25:20.354Z,4.13
2019-03-09T13:30:20.856Z,3.20
2019-03-09T13:35:17.931Z,7.53
2019-03-09T13:40:15.722Z,2.13
2019-03-09T13:45:17.345Z,4.67
2019-03-09T13:50:14.675Z,5.47
2019-03-09T13:55:12.670Z,4.27
2019-03-09T14:00:17.949Z,9.53
2019-03-09T14:05:15.155Z,2.90
2019-03-09T14:10:15.044Z,5.50
2019-03-09T14:15:17.227Z,4.90
2019-03-09T14:20:15.160Z,12.47
2019-03-09T14:25:15.499Z,2.17
2019-03-09T14:30:18.346Z,2.93
2019-03-09T14:35:15.691Z,3.37
2019-03-09T14:40:16.265Z,3.40
2019-03-09T14:45:19.473Z,2.30
2019-03-09T14:50:17.166Z,3.47
2019-03-09T14:55:14.484Z,3.27
2019-03-09T15:00:24.015Z,3.80
2019-03-09T15:05:21.018Z,3.67
2019-03-09T15:10:18.482Z,1.77
2019-03-09T15:15:19.836Z,2.23
2019-03-09T15:20:17.146Z,5.40
2019-03-09T15:25:17.092Z,2.90
2019-03-09T15:30:16.271Z,3.07
2019-03-09T15:35:15.240Z,3.17
2019-03-09T15:40:17.119Z,3.53
2019-03-09T15:45:17.260Z,5.13
2019-03-09T15:50:22.136Z,2.23
2019-03-09T15:55:19.400Z,2.50
2019-03-09T16:00:25.857Z,2.20
2019-03-09T16:05:22.958Z,4.03
2019-03-09T16:10:22.034Z,3.23
2019-03-09T16:15:20.166Z,7.70
2019-03-09T16:20:24.308Z,2.43
2019-03-09T16:25:21.512Z,1.70
2019-03-09T16:30:22.994Z,3.20
2019-03-09T16:35:20.025Z,2.37
2019-03-09T16:40:24.332Z,2.40
2019-03-09T16:45:21.527Z,2.47
2019-03-09T16:50:20.763Z,2.30
2019-03-09T16:55:17.868Z,2.67
2019-03-09T17:00:22.931Z,2.30
2019-03-09T17:05:19.946Z,2.93
2019-03-09T17:10:19.163Z,2.07
2019-03-09T17:15:23.072Z,1.97
2019-03-09T17:20:20.372Z,2.83
2019-03-09T17:25:17.476Z,1.97
2019-03-09T17:30:20.614Z,2.33
2019-03-09T17:35:20.842Z,1.73
2019-03-09T17:40:18.217Z,2.00
2019-03-09T17:45:21.962Z,2.40
2019-03-09T17:50:19.077Z,3.60
2019-03-09T17:55:16.821Z,2.27
2019-03-09T18:00:28.358Z,2.27
2019-03-09T18:05:26.386Z,2.20
2019-03-09T18:10:28.842Z,2.63
2019-03-09T18:15:26.006Z,2.63
2019-03-09T18:20:23.279Z,2.23
2019-03-09T18:25:20.446Z,2.60
2019-03-09T18:30:17.870Z,3.00
2019-03-09T18:35:15.185Z,6.17
2019-03-09T18:40:16.217Z,5.07
2019-03-09T18:45:18.551Z,3.37
2019-03-09T18:50:15.811Z,3.57
2019-03-09T18:55:13.129Z,3.30
2019-03-09T19:00:17.778Z,3.33
2019-03-09T19:05:15.551Z,5.27
2019-03-09T19:10:16.376Z,11.70
2019-03-09T19:15:18.032Z,2.57
2019-03-09T19:20:20.209Z,5.17
2019-03-09T19:25:17.679Z,7.60
2019-03-09T19:30:19.988Z,3.97
2019-03-09T19:35:17.515Z,4.53
2019-03-09T19:40:18.965Z,4.07
2019-03-09T19:45:18.975Z,5.17
2019-03-09T19:50:28.501Z,4.57
2019-03-09T19:55:25.696Z,6.87
2019-03-09T20:00:23.076Z,5.07
2019-03-09T20:05:20.348Z,3.10
2019-03-09T20:10:19.696Z,6.00
2019-03-09T20:15:19.493Z,4.27
2019-03-09T20:20:17.445Z,4.47
2019-03-09T20:25:14.590Z,4.73
2019-03-09T20:30:21.519Z,3.80
2019-03-09T20:35:18.806Z,8.93
2019-03-09T20:40:17.094Z,2.73
2019-03-09T20:45:20.922Z,6.03
2019-03-09T20:50:22.330Z,3.07
2019-03-09T20:55:19.360Z,3.33
2019-03-09T21:00:21.907Z,3.50
2019-03-09T21:05:19.170Z,4.03
2019-03-09T21:10:17.703Z,4.13
2019-03-09T21:15:14.777Z,3.17
2019-03-09T21:20:12.357Z,4.43
2019-03-09T21:25:09.433Z,8.17
2019-03-09T21:30:08.301Z,3.70
2019-03-09T21:35:06.363Z,3.43
2019-03-09T21:40:05.677Z,3.20
2019-03-09T21:45:03.240Z,3.10
2019-03-09T21:50:00.375Z,3.97
2019-03-09T21:54:57.387Z,2.93
2019-03-09T21:59:54.710Z,3.83
2019-03-09T22:04:51.881Z,4.20
2019-03-09T22:09:49.006Z,3.40
2019-03-09T22:14:45.939Z,4.43
2019-03-09T22:19:43.040Z,3.87
2019-03-09T22:24:40.003Z,6.00
2019-03-09T22:29:37.124Z,3.37
2019-03-09T22:34:34.098Z,6.13
2019-03-09T22:39:31.245Z,4.80
2019-03-09T22:44:28.326Z,3.90
2019-03-09T22:49:25.430Z,3.67
2019-03-09T22:54:22.945Z,6.23
2019-03-09T22:59:23.195Z,3.33
2019-03-09T23:04:20.452Z,6.67
2019-03-09T23:09:17.460Z,3.40
2019-03-09T23:14:15.693Z,3.80
2019-03-09T23:19:13.291Z,3.80
2019-03-09T23:24:10.455Z,3.80
2019-03-09T23:29:07.531Z,5.20
2019-03-09T23:34:04.499Z,2.93
2019-03-09T23:39:01.633Z,3.23
2019-03-09T23:43:58.679Z,3.93
2019-03-09T23:48:56.100Z,2.77
2019-03-09T23:53:53.175Z,3.77
2019-03-09T23:58:50.240Z,3.90
